Nearby METAR Reports

 

KRYN - Tucson/Ryan Fld, Arizona, USA
Distance from station: SSW 16mi, 26km
Updated: Tue, 31-Jan-2023 1:35pm MST
Partly cloudy
Partly cloudy
 Wind from varies
Wind: varies 5 mph , 7 km/h
Temperature: 59°F , 15°C
Dew Point: 32°F , 0°C
Humidity: 36%
Barometer: 29.97 inHg , 1014.9 hPa
Clouds: Partly cloudy
Visibility: 10 miles , 16 km
Cloud details: Partly cloudy 5500 ft
2023/01/31 20:35 KRYN 312035Z AUTO VRB04KT 10SM SCT055 15/00 A2997 RMK AO2
KTUS - Tucson, Arizona, USA
Distance from station: SSE 18mi, 28km
Updated: Tue, 31-Jan-2023 12:53pm MST
Clear
Clear
 Wind from varies
Wind: varies 5 mph , 7 km/h
Temperature: 59°F , 15°C
Dew Point: 28°F , -2°C
Humidity: 31%
Barometer: 30.01 inHg , 1016.3 hPa
Clouds: Clear
Visibility: 10 miles , 16 km
2023/01/31 19:53 KTUS 311953Z VRB04KT 10SM CLR 15/M02 A3001 RMK AO2 SLP147 T01501017
 
KDMA - Davis/Tucson, Arizona, USA
Distance from station: SE 18mi, 29km
Updated: Tue, 31-Jan-2023 12:55pm MST
Clear
Clear
 Wind from S
Wind: S 5 mph , 7 km/h
Temperature: 57°F , 14°C
Dew Point: 28°F , -2°C
Humidity: 33%
Barometer: 29.99 inHg , 1015.6 hPa
Clouds: Clear
Visibility: 10 miles , 16 km
2023/01/31 19:55 KDMA 311955Z AUTO 18004KT 10SM CLR 14/M02 A2999 RMK AO2 SLP188 T01411019 $
KCGZ - Casa Granda, Arizona, USA
Distance from station: NW 57mi, 92km
Updated: Tue, 31-Jan-2023 12:56pm MST

 
Temperature: 57°F , 14°C
Dew Point: 39°F , 4°C
Humidity: 51%
2023/01/31 19:56 KCGZ 311956Z AUTO 14/04 RMK AO2 SLPNO T01390044 $
 
KALK - Pioneer Airfield, Arizona, USA
Distance from station: SE 65mi, 104km
Updated: Tue, 31-Jan-2023 12:56pm MST
Clear
Clear
 Wind from SW
Wind: SW 18 mph , 30 km/h, Gust: 28 mph , 44 km/h
Temperature: 54°F , 12°C
Dew Point: 19°F , -7°C
Humidity: 26%
Barometer: 30.01 inHg , 1016.3 hPa
Clouds: Clear
Visibility: 10 miles , 16 km
2023/01/31 19:56 KALK 311956Z AUTO 23016G24KT 10SM CLR 12/M07 A3001 RMK AO2 PK WND 24028/1926 SLP118 T01221072
KOLS - Nogales, Arizona, USA
Distance from station: S 67mi, 108km
Updated: Tue, 31-Jan-2023 12:54pm MST
Clear
Clear
 Wind from SSE
Wind: SSE 12 mph , 19 km/h, Gust: 21 mph , 33 km/h
Temperature: 57°F , 14°C
Dew Point: 27°F , -3°C
Humidity: 31%
Barometer: 29.99 inHg , 1015.6 hPa
Clouds: Clear
Visibility: 10 miles , 16 km
2023/01/31 19:54 KOLS 311954Z AUTO 16010G18KT 10SM CLR 14/M03 A2999 RMK AO2 SLP132 T01391028
 
KFHU - Fort Huachuca, Arizona, USA
Distance from station: SE 69mi, 110km
Updated: Tue, 31-Jan-2023 1:10pm MST
Clear
Clear
 Wind from S
Wind: S 13 mph , 20 km/h, Gust: 16 mph , 26 km/h
Temperature: 54°F , 12°C
Dew Point: 18°F , -8°C
Humidity: 24%
Barometer: 29.99 inHg , 1015.6 hPa
Clouds: Clear
Visibility: 10 miles , 16 km
2023/01/31 20:10 KFHU 312010Z AUTO 18011G14KT 10SM CLR 12/M08 A2999 RMK AO2 PRESFR SLP142
KIWA - Chandler/Mesa, Arizona, USA
Distance from station: NNW 73mi, 117km
Updated: Tue, 31-Jan-2023 12:48pm MST
Partly cloudy
Partly cloudy
 Wind from calm
Wind: Calm
Temperature: 57°F , 14°C
Dew Point: 39°F , 4°C
Humidity: 51%
Barometer: 30.03 inHg , 1016.9 hPa
Clouds: Partly cloudy
Visibility: 10 miles , 16 km
Cloud details: Partly cloudy 7000 ft
Partly cloudy 10000 ft
2023/01/31 19:48 KIWA 311948Z 00000KT 10SM SCT070 SCT100 14/04 A3003